Time;durP1;ratioP1;P1;durP2;ratioP2;P2;SDS_P1;SDS_P2;PMS_P1;PMS_P2;Temp;Humidity;BMP_temperature;BMP_pressure;BME280_temperature;BME280_humidity;BME280_pressure;Samples;Min_cycle;Max_cycle;Signal;HPM_P1;HPM_P2
2022/07/11 00:00:47;;;;;;;;;;;16.60;99.90;;;;;;5023767;28;20391;-73
2022/07/11 00:03:13;;;;;;;;;;;16.60;99.90;;;;;;5009135;28;19924;-73
2022/07/11 00:05:38;;;;;;;;;;;16.60;99.90;;;;;;5023832;28;19917;-73
2022/07/11 00:08:06;;;;;;;;;;;16.60;99.90;;;;;;5009784;28;19929;-73
2022/07/11 00:10:32;;;;;;;;;;;16.60;99.90;;;;;;5013179;28;19916;-74
2022/07/11 00:12:57;;;;;;;;;;;16.60;99.90;;;;;;5012115;28;19931;-73
2022/07/11 00:15:23;;;;;;;;;;;16.60;99.90;;;;;;5012495;28;19923;-74
2022/07/11 00:17:49;;;;;;;;;;;16.60;99.90;;;;;;5009879;28;19931;-74
2022/07/11 00:20:14;;;;;;;;;;;16.50;99.90;;;;;;5010200;28;19927;-75
2022/07/11 00:22:40;;;;;;;;;;;16.60;99.90;;;;;;5027123;28;19921;-73
2022/07/11 00:25:05;;;;;;;;;;;16.60;99.90;;;;;;4998529;28;19917;-73
2022/07/11 00:27:31;;;;;;;;;;;16.50;99.90;;;;;;5014930;28;20323;-74
2022/07/11 00:29:56;;;;;;;;;;;16.50;99.90;;;;;;5009687;28;19924;-74
2022/07/11 00:32:22;;;;;;;;;;;16.50;99.90;;;;;;5013954;28;19929;-72
2022/07/11 00:34:47;;;;;;;;;;;16.50;99.90;;;;;;5002181;28;19964;-73
2022/07/11 00:37:13;;;;;;;;;;;16.50;99.90;;;;;;5024093;28;19978;-73
2022/07/11 00:39:39;;;;;;;;;;;16.50;99.90;;;;;;5014062;28;19924;-73
2022/07/11 00:42:04;;;;;;;;;;;16.50;99.90;;;;;;5025445;28;19920;-73
2022/07/11 00:44:30;;;;;;;;;;;16.40;99.90;;;;;;5015769;28;19925;-74
2022/07/11 00:46:55;;;;;;;;;;;16.40;99.90;;;;;;5024748;28;19925;-73
2022/07/11 00:49:21;;;;;;;;;;;16.30;99.90;;;;;;5012394;28;19998;-73
2022/07/11 00:51:48;;;;;;;;;;;16.30;99.90;;;;;;5012164;28;19921;-74
2022/07/11 00:54:15;;;;;;;;;;;16.30;99.90;;;;;;5014757;28;20479;-73
2022/07/11 00:56:40;;;;;;;;;;;16.30;99.90;;;;;;5022265;28;19925;-73
2022/07/11 00:59:08;;;;;;;;;;;16.70;99.90;;;;;;5008498;28;19924;-73
2022/07/11 01:01:36;;;;;;;;;;;16.20;99.90;;;;;;5025445;28;20007;-73
2022/07/11 01:04:03;;;;;;;;;;;16.20;99.90;;;;;;5015186;28;19917;-73
2022/07/11 01:06:29;;;;;;;;;;;16.20;99.90;;;;;;5016065;28;20008;-73
2022/07/11 01:08:54;;;;;;;;;;;16.20;99.90;;;;;;5009010;28;19971;-73
2022/07/11 01:11:20;;;;;;;;;;;16.10;99.90;;;;;;5014246;28;19924;-72
2022/07/11 01:13:46;;;;;;;;;;;16.10;99.90;;;;;;5014433;28;19917;-73
2022/07/11 01:16:24;;;;;;;;;;;16.10;99.90;;;;;;5010143;28;20007;-73
2022/07/11 01:18:51;;;;;;;;;;;16.10;99.90;;;;;;5010101;28;19971;-73
2022/07/11 01:21:21;;;;;;;;;;;16.10;99.90;;;;;;5013319;28;19924;-75
2022/07/11 01:23:47;;;;;;;;;;;16.10;99.90;;;;;;5009845;28;19921;-73
2022/07/11 01:26:13;;;;;;;;;;;16.10;99.90;;;;;;4998018;28;19917;-73
2022/07/11 01:28:39;;;;;;;;;;;16.10;99.90;;;;;;5007450;28;19925;-73
2022/07/11 01:31:05;;;;;;;;;;;16.10;99.90;;;;;;5013515;28;19932;-72
2022/07/11 01:33:34;;;;;;;;;;;16.10;99.90;;;;;;5015354;28;19924;-73
2022/07/11 01:36:00;;;;;;;;;;;16.10;99.90;;;;;;5023102;28;20276;-73
2022/07/11 01:38:26;;;;;;;;;;;16.30;99.90;;;;;;5011661;28;20021;-73
2022/07/11 01:40:51;;;;;;;;;;;16.00;99.90;;;;;;5015590;28;20015;-73
2022/07/11 01:43:17;;;;;;;;;;;16.10;99.90;;;;;;5014625;28;20004;-73
2022/07/11 01:45:43;;;;;;;;;;;16.00;99.90;;;;;;5018784;28;20008;-73
2022/07/11 01:48:08;;;;;;;;;;;16.00;99.90;;;;;;5008513;28;19921;-74
2022/07/11 01:50:34;;;;;;;;;;;16.00;99.90;;;;;;5024689;28;19917;-73
2022/07/11 01:53:01;;;;;;;;;;;16.10;99.90;;;;;;5015983;28;19971;-73
2022/07/11 01:55:27;;;;;;;;;;;16.00;99.90;;;;;;5011960;28;19928;-73
2022/07/11 01:57:52;;;;;;;;;;;16.00;99.90;;;;;;5007280;28;19917;-73
2022/07/11 02:00:18;;;;;;;;;;;16.00;99.90;;;;;;5014334;28;19917;-73
2022/07/11 02:02:44;;;;;;;;;;;16.00;99.90;;;;;;5014292;28;20354;-73
2022/07/11 02:05:09;;;;;;;;;;;16.60;99.90;;;;;;5014774;28;19928;-73
2022/07/11 02:10:19;;;;;;;;;;;16.00;99.90;;;;;;5009171;28;19924;-73
2022/07/11 02:12:44;;;;;;;;;;;16.80;99.90;;;;;;5025575;28;19957;-73
2022/07/11 02:15:10;;;;;;;;;;;16.00;99.90;;;;;;5026799;28;19923;-73
2022/07/11 02:17:35;;;;;;;;;;;16.00;99.90;;;;;;4994082;28;19987;-75
2022/07/11 02:20:01;;;;;;;;;;;16.00;99.90;;;;;;5009639;28;19957;-73
2022/07/11 02:22:28;;;;;;;;;;;16.00;99.90;;;;;;5016775;28;19928;-73
2022/07/11 02:24:54;;;;;;;;;;;16.00;99.90;;;;;;5017149;28;19917;-73
2022/07/11 02:27:19;;;;;;;;;;;16.00;99.90;;;;;;5011924;28;20429;-73
2022/07/11 02:29:45;;;;;;;;;;;16.00;99.90;;;;;;5013921;28;19921;-73
2022/07/11 02:32:11;;;;;;;;;;;16.00;99.90;;;;;;5023634;28;19917;-73
2022/07/11 02:34:37;;;;;;;;;;;16.00;99.90;;;;;;5024139;28;19921;-73
2022/07/11 02:37:02;;;;;;;;;;;16.50;99.90;;;;;;5010460;28;19916;-73
2022/07/11 02:39:28;;;;;;;;;;;15.90;99.90;;;;;;5011264;28;19928;-73
2022/07/11 02:41:53;;;;;;;;;;;16.00;99.90;;;;;;5007077;28;19932;-73
2022/07/11 02:44:19;;;;;;;;;;;16.00;99.90;;;;;;4992299;28;19945;-73
2022/07/11 02:46:45;;;;;;;;;;;15.90;99.90;;;;;;5012737;28;19917;-73
2022/07/11 02:49:10;;;;;;;;;;;15.90;99.90;;;;;;5015915;28;19971;-74
2022/07/11 02:51:36;;;;;;;;;;;15.90;99.90;;;;;;5011335;28;19925;-73
2022/07/11 02:54:02;;;;;;;;;;;16.00;99.90;;;;;;5006511;28;19956;-73
2022/07/11 02:56:27;;;;;;;;;;;16.00;99.90;;;;;;5016285;28;19921;-73
2022/07/11 02:58:53;;;;;;;;;;;16.00;99.90;;;;;;5013971;28;19917;-73
2022/07/11 03:01:19;;;;;;;;;;;16.00;99.90;;;;;;5010004;28;19971;-73
2022/07/11 03:03:45;;;;;;;;;;;16.00;99.90;;;;;;4997095;28;19971;-74
2022/07/11 03:06:11;;;;;;;;;;;16.00;99.90;;;;;;5022263;28;19968;-73
2022/07/11 03:08:37;;;;;;;;;;;16.00;99.90;;;;;;5010231;28;19952;-74
2022/07/11 03:11:02;;;;;;;;;;;16.40;99.90;;;;;;5012031;28;20534;-73
2022/07/11 03:13:28;;;;;;;;;;;16.00;99.90;;;;;;5022147;28;19921;-73
2022/07/11 03:15:53;;;;;;;;;;;16.00;99.90;;;;;;5015323;28;19925;-73
2022/07/11 03:18:19;;;;;;;;;;;16.00;99.90;;;;;;5012786;28;19995;-74
2022/07/11 03:20:44;;;;;;;;;;;15.90;99.90;;;;;;5010183;28;19917;-73
2022/07/11 03:23:10;;;;;;;;;;;15.90;99.90;;;;;;5006446;28;19917;-73
2022/07/11 03:25:36;;;;;;;;;;;16.00;99.90;;;;;;5001440;28;19917;-74
2022/07/11 03:28:01;;;;;;;;;;;15.90;99.90;;;;;;5013518;28;19928;-75
2022/07/11 03:30:27;;;;;;;;;;;16.00;99.90;;;;;;5015077;28;19925;-73
2022/07/11 03:32:52;;;;;;;;;;;15.90;99.90;;;;;;5016864;28;20000;-73
2022/07/11 03:38:02;;;;;;;;;;;15.90;99.90;;;;;;5015452;28;20375;-73
2022/07/11 03:40:28;;;;;;;;;;;15.90;99.90;;;;;;5012325;28;19921;-73
2022/07/11 03:42:53;;;;;;;;;;;15.90;99.90;;;;;;5013847;28;20004;-73
2022/07/11 03:45:19;;;;;;;;;;;15.90;99.90;;;;;;5012294;28;19924;-73
2022/07/11 03:47:47;;;;;;;;;;;15.90;99.90;;;;;;5017126;28;20387;-73
2022/07/11 03:50:12;;;;;;;;;;;15.90;99.90;;;;;;5016743;28;19923;-72
2022/07/11 03:52:38;;;;;;;;;;;15.90;99.90;;;;;;5024586;28;19925;-74
2022/07/11 03:55:04;;;;;;;;;;;15.90;99.90;;;;;;5025551;28;19963;-73
2022/07/11 03:57:29;;;;;;;;;;;15.90;99.90;;;;;;5017343;28;19921;-73
2022/07/11 03:59:55;;;;;;;;;;;16.20;99.90;;;;;;5015294;28;19921;-73
2022/07/11 04:02:20;;;;;;;;;;;15.90;99.90;;;;;;5018826;28;20015;-73
2022/07/11 04:04:46;;;;;;;;;;;15.90;99.90;;;;;;5015236;28;20036;-73
2022/07/11 04:07:11;;;;;;;;;;;15.90;99.90;;;;;;5016698;28;19967;-73
2022/07/11 04:09:37;;;;;;;;;;;15.90;99.90;;;;;;5025634;28;20402;-73
2022/07/11 04:12:02;;;;;;;;;;;15.90;99.90;;;;;;5014819;28;19924;-72
2022/07/11 04:14:28;;;;;;;;;;;15.90;99.90;;;;;;5024117;28;19936;-73
2022/07/11 04:16:57;;;;;;;;;;;15.90;99.90;;;;;;5014535;28;19931;-73
2022/07/11 04:19:23;;;;;;;;;;;16.00;99.90;;;;;;5024345;28;20407;-72
2022/07/11 04:21:49;;;;;;;;;;;16.00;99.90;;;;;;5011695;28;19921;-73
2022/07/11 04:24:14;;;;;;;;;;;16.00;99.90;;;;;;5014935;28;20430;-73
2022/07/11 04:26:40;;;;;;;;;;;16.00;99.90;;;;;;5015548;28;19921;-72
2022/07/11 04:29:07;;;;;;;;;;;16.00;99.90;;;;;;5006844;28;20410;-73
2022/07/11 04:31:33;;;;;;;;;;;16.00;99.90;;;;;;5015454;28;19929;-73
2022/07/11 04:33:58;;;;;;;;;;;16.00;99.90;;;;;;5017029;28;19924;-73
2022/07/11 04:36:24;;;;;;;;;;;16.00;99.90;;;;;;5015584;28;19982;-73
2022/07/11 04:38:49;;;;;;;;;;;16.00;99.90;;;;;;5014319;28;19940;-73
2022/07/11 04:41:15;;;;;;;;;;;16.00;99.90;;;;;;5024761;28;19916;-73
2022/07/11 04:43:41;;;;;;;;;;;16.00;99.90;;;;;;5011889;28;20015;-73
2022/07/11 04:46:06;;;;;;;;;;;16.10;99.90;;;;;;5013969;28;19959;-73
2022/07/11 04:48:32;;;;;;;;;;;16.00;99.90;;;;;;5014542;28;19929;-73
2022/07/11 04:50:57;;;;;;;;;;;16.00;99.90;;;;;;5022421;28;19971;-73
2022/07/11 04:53:23;;;;;;;;;;;16.00;99.90;;;;;;5009289;28;19932;-73
2022/07/11 04:55:49;;;;;;;;;;;16.00;99.90;;;;;;5018006;28;19921;-73
2022/07/11 04:58:14;;;;;;;;;;;16.10;99.90;;;;;;5013686;28;19917;-73
2022/07/11 05:00:40;;;;;;;;;;;16.10;99.90;;;;;;5022803;28;19925;-73
2022/07/11 05:03:06;;;;;;;;;;;16.20;99.90;;;;;;5014136;28;19944;-73
2022/07/11 05:05:32;;;;;;;;;;;16.10;99.90;;;;;;5016586;28;20375;-73
2022/07/11 05:07:58;;;;;;;;;;;16.20;99.90;;;;;;5013323;28;19928;-73
2022/07/11 05:10:23;;;;;;;;;;;16.20;99.90;;;;;;5025513;28;19923;-73
2022/07/11 05:12:49;;;;;;;;;;;16.20;99.90;;;;;;5013713;28;20015;-73
2022/07/11 05:15:14;;;;;;;;;;;16.30;99.90;;;;;;5014157;28;19917;-73
2022/07/11 05:17:40;;;;;;;;;;;16.40;99.90;;;;;;5009480;28;19917;-73
2022/07/11 05:20:06;;;;;;;;;;;16.40;99.90;;;;;;5010615;28;19917;-73
2022/07/11 05:22:32;;;;;;;;;;;16.40;99.90;;;;;;5010462;28;19940;-73
2022/07/11 05:24:58;;;;;;;;;;;16.50;99.90;;;;;;5012942;28;20335;-73
2022/07/11 05:27:23;;;;;;;;;;;16.50;99.90;;;;;;5013599;28;19925;-73
2022/07/11 05:29:49;;;;;;;;;;;17.00;99.90;;;;;;5012564;28;19916;-73
2022/07/11 05:32:15;;;;;;;;;;;16.50;99.90;;;;;;5021894;28;19917;-73
2022/07/11 05:34:40;;;;;;;;;;;16.40;99.90;;;;;;5014372;28;19929;-73
2022/07/11 05:37:06;;;;;;;;;;;16.50;99.90;;;;;;5009503;28;19987;-74
2022/07/11 05:39:32;;;;;;;;;;;16.60;99.90;;;;;;5011445;28;20571;-73
2022/07/11 05:41:58;;;;;;;;;;;16.60;99.90;;;;;;5013788;28;19917;-73
2022/07/11 05:44:23;;;;;;;;;;;16.50;99.90;;;;;;5013598;28;19917;-74
2022/07/11 05:46:49;;;;;;;;;;;16.60;99.90;;;;;;5014526;28;19925;-73
2022/07/11 05:49:15;;;;;;;;;;;16.60;99.90;;;;;;5009390;28;19937;-73
2022/07/11 05:51:41;;;;;;;;;;;16.70;99.90;;;;;;5020216;28;20311;-72
2022/07/11 05:54:07;;;;;;;;;;;16.60;99.90;;;;;;5020742;28;19920;-72
2022/07/11 05:56:32;;;;;;;;;;;16.60;99.90;;;;;;5010801;28;20294;-72
2022/07/11 05:58:58;;;;;;;;;;;16.50;99.90;;;;;;5028885;28;19917;-73
2022/07/11 06:01:23;;;;;;;;;;;16.60;99.90;;;;;;5011833;28;20423;-73
2022/07/11 06:03:49;;;;;;;;;;;16.60;99.90;;;;;;5006381;28;19948;-73
2022/07/11 06:06:16;;;;;;;;;;;16.60;99.90;;;;;;5021329;28;19917;-73
2022/07/11 06:08:42;;;;;;;;;;;16.60;99.90;;;;;;5002989;28;19929;-72
2022/07/11 06:11:10;;;;;;;;;;;16.70;99.90;;;;;;5013438;28;19932;-73
2022/07/11 06:13:37;;;;;;;;;;;16.80;99.90;;;;;;5011499;28;19917;-73
2022/07/11 06:16:03;;;;;;;;;;;16.90;99.90;;;;;;5008951;28;19968;-73
2022/07/11 06:18:29;;;;;;;;;;;16.90;99.90;;;;;;5006933;28;19979;-73
2022/07/11 06:20:54;;;;;;;;;;;17.20;99.90;;;;;;5024829;28;20400;-73
2022/07/11 06:23:20;;;;;;;;;;;17.10;99.90;;;;;;5002579;28;19959;-74
2022/07/11 06:25:45;;;;;;;;;;;17.10;99.90;;;;;;5011062;28;20352;-73
2022/07/11 06:28:11;;;;;;;;;;;17.20;99.90;;;;;;5009254;28;19975;-73
2022/07/11 06:30:37;;;;;;;;;;;17.30;99.90;;;;;;5028454;28;20303;-72
2022/07/11 06:33:03;;;;;;;;;;;17.30;99.90;;;;;;5013312;28;20435;-72
2022/07/11 06:35:29;;;;;;;;;;;17.30;99.90;;;;;;5011292;28;20012;-73
2022/07/11 06:37:56;;;;;;;;;;;17.30;99.90;;;;;;5011837;28;20015;-73
2022/07/11 06:40:22;;;;;;;;;;;17.30;99.90;;;;;;4992553;28;19917;-73
2022/07/11 06:42:48;;;;;;;;;;;17.30;99.90;;;;;;5011183;28;19964;-73
2022/07/11 06:45:14;;;;;;;;;;;17.40;99.90;;;;;;5010763;28;19970;-73
2022/07/11 06:47:40;;;;;;;;;;;17.40;99.90;;;;;;5027259;28;20391;-73
2022/07/11 06:50:06;;;;;;;;;;;17.40;99.90;;;;;;5020443;28;21704;-73
2022/07/11 06:52:31;;;;;;;;;;;17.40;99.90;;;;;;5005540;28;20426;-73
2022/07/11 06:54:58;;;;;;;;;;;17.50;99.90;;;;;;5035959;28;19921;-73
2022/07/11 06:57:23;;;;;;;;;;;17.60;99.90;;;;;;5017122;28;19924;-73
2022/07/11 06:59:49;;;;;;;;;;;17.60;99.90;;;;;;5015245;28;19917;-73
2022/07/11 07:02:15;;;;;;;;;;;17.60;99.90;;;;;;5010599;28;20818;-73
2022/07/11 07:04:40;;;;;;;;;;;17.60;99.90;;;;;;5018874;28;19917;-73
2022/07/11 07:07:06;;;;;;;;;;;17.60;99.90;;;;;;5018155;28;20334;-73
2022/07/11 07:09:31;;;;;;;;;;;17.70;99.90;;;;;;4996603;28;20334;-73
2022/07/11 07:11:57;;;;;;;;;;;17.70;99.90;;;;;;5013235;28;19928;-74
2022/07/11 07:14:23;;;;;;;;;;;17.80;99.90;;;;;;5014283;28;19917;-73
2022/07/11 07:16:49;;;;;;;;;;;17.90;99.90;;;;;;5042208;28;19944;-73
2022/07/11 07:19:14;;;;;;;;;;;17.90;99.90;;;;;;5029767;28;20338;-73
2022/07/11 07:21:40;;;;;;;;;;;17.80;99.90;;;;;;5020217;28;19996;-73
2022/07/11 07:24:06;;;;;;;;;;;17.90;99.90;;;;;;5038040;28;19918;-73
2022/07/11 07:26:32;;;;;;;;;;;17.90;99.90;;;;;;5034744;28;19917;-73
2022/07/11 07:28:57;;;;;;;;;;;17.90;99.90;;;;;;5007175;28;20011;-73
2022/07/11 07:31:23;;;;;;;;;;;17.90;99.90;;;;;;5028681;28;20059;-74
2022/07/11 07:33:49;;;;;;;;;;;18.00;99.90;;;;;;5012401;28;19924;-73
2022/07/11 07:36:15;;;;;;;;;;;18.10;99.90;;;;;;5039026;28;20307;-73
2022/07/11 07:38:43;;;;;;;;;;;18.10;99.90;;;;;;5029394;28;19917;-73
2022/07/11 07:41:12;;;;;;;;;;;18.10;99.90;;;;;;5009104;28;19924;-73
2022/07/11 07:43:38;;;;;;;;;;;18.20;99.90;;;;;;5030365;28;19917;-73
2022/07/11 07:46:04;;;;;;;;;;;18.20;99.90;;;;;;5021726;28;19917;-73
2022/07/11 07:48:30;;;;;;;;;;;18.30;99.90;;;;;;5005290;28;19925;-73
2022/07/11 07:50:56;;;;;;;;;;;18.30;99.90;;;;;;5017544;28;19921;-73
2022/07/11 07:53:21;;;;;;;;;;;18.30;99.90;;;;;;5026073;28;19939;-73
2022/07/11 07:55:47;;;;;;;;;;;18.30;99.90;;;;;;5019039;28;20032;-73
2022/07/11 07:58:12;;;;;;;;;;;18.30;99.90;;;;;;5002548;28;19991;-73
2022/07/11 08:03:22;;;;;;;;;;;18.50;99.90;;;;;;5019118;28;19920;-73
2022/07/11 08:05:48;;;;;;;;;;;18.60;99.90;;;;;;5013695;28;19918;-73
2022/07/11 08:08:13;;;;;;;;;;;18.70;99.90;;;;;;5010870;28;19974;-74
2022/07/11 08:10:39;;;;;;;;;;;18.70;99.90;;;;;;5005308;28;19917;-73
2022/07/11 08:13:04;;;;;;;;;;;18.80;99.90;;;;;;5025368;28;19917;-73
2022/07/11 08:15:30;;;;;;;;;;;18.90;99.90;;;;;;5013063;28;19968;-73
2022/07/11 08:17:55;;;;;;;;;;;19.20;99.90;;;;;;5010394;28;19921;-74
2022/07/11 08:20:21;;;;;;;;;;;19.50;99.90;;;;;;5024692;28;19966;-74
2022/07/11 08:22:47;;;;;;;;;;;19.50;99.90;;;;;;5018345;28;20427;-73
2022/07/11 08:25:12;;;;;;;;;;;19.50;99.90;;;;;;5023075;28;19921;-73
2022/07/11 08:27:38;;;;;;;;;;;19.40;99.90;;;;;;5019287;28;20350;-73
2022/07/11 08:30:07;;;;;;;;;;;19.40;99.90;;;;;;5005719;28;19955;-73
2022/07/11 08:32:33;;;;;;;;;;;19.30;99.90;;;;;;5013806;28;20371;-73
2022/07/11 08:34:59;;;;;;;;;;;19.40;99.90;;;;;;5013869;28;19975;-73
2022/07/11 08:37:24;;;;;;;;;;;19.30;99.90;;;;;;5015285;28;19963;-73
2022/07/11 08:39:50;;;;;;;;;;;19.30;99.90;;;;;;5014476;28;20007;-73
2022/07/11 08:42:20;;;;;;;;;;;19.30;99.90;;;;;;5003465;28;19921;-72
2022/07/11 08:44:45;;;;;;;;;;;19.30;99.90;;;;;;5014985;28;19924;-73
2022/07/11 08:47:11;;;;;;;;;;;19.20;99.90;;;;;;5032365;28;19920;-73
2022/07/11 08:49:38;;;;;;;;;;;19.20;99.90;;;;;;5016743;28;19928;-73
2022/07/11 08:52:04;;;;;;;;;;;19.20;99.90;;;;;;5033142;28;20012;-73
2022/07/11 08:54:30;;;;;;;;;;;19.30;99.90;;;;;;5010412;28;19917;-73
2022/07/11 08:56:56;;;;;;;;;;;19.50;99.90;;;;;;5037002;28;19971;-73
2022/07/11 08:59:22;;;;;;;;;;;19.50;99.90;;;;;;5014499;28;19917;-73
2022/07/11 09:01:49;;;;;;;;;;;19.60;99.90;;;;;;5017456;28;19924;-73
2022/07/11 09:04:15;;;;;;;;;;;19.50;99.90;;;;;;5033088;28;19967;-73
2022/07/11 09:06:40;;;;;;;;;;;19.50;99.90;;;;;;5023641;28;19917;-73
2022/07/11 09:09:06;;;;;;;;;;;19.50;99.90;;;;;;5013295;28;19968;-73
2022/07/11 09:11:49;;;;;;;;;;;19.60;99.90;;;;;;5031169;28;19916;-73
2022/07/11 09:14:22;;;;;;;;;;;19.60;99.90;;;;;;5017755;28;19947;-73
2022/07/11 09:16:51;;;;;;;;;;;19.70;99.90;;;;;;5015703;28;19924;-73
2022/07/11 09:19:21;;;;;;;;;;;19.80;99.90;;;;;;5022369;28;19927;-73
2022/07/11 09:25:21;;;;;;;;;;;20.40;99.90;;;;;;5008720;28;19994;-73
2022/07/11 09:27:48;;;;;;;;;;;20.70;99.90;;;;;;5017036;28;19940;-73
2022/07/11 09:30:18;;;;;;;;;;;20.70;99.90;;;;;;5034500;28;20379;-73
2022/07/11 09:32:55;;;;;;;;;;;20.60;99.90;;;;;;5033730;28;19917;-73
2022/07/11 09:35:22;;;;;;;;;;;20.50;99.90;;;;;;5018803;28;19916;-73
2022/07/11 09:37:48;;;;;;;;;;;21.00;99.90;;;;;;5014806;28;19916;-73
2022/07/11 09:40:14;;;;;;;;;;;20.50;99.90;;;;;;5009155;28;19924;-73
2022/07/11 09:42:46;;;;;;;;;;;20.30;99.90;;;;;;5029483;28;19916;-73
2022/07/11 09:45:12;;;;;;;;;;;20.20;99.90;;;;;;5037239;28;19921;-73
2022/07/11 09:47:48;;;;;;;;;;;20.10;99.90;;;;;;5031801;28;20422;-73
2022/07/11 09:50:17;;;;;;;;;;;20.20;99.90;;;;;;5006280;28;19917;-73
2022/07/11 09:52:43;;;;;;;;;;;20.10;99.90;;;;;;5028248;28;19971;-73
2022/07/11 09:55:09;;;;;;;;;;;20.20;99.90;;;;;;5003265;28;20280;-73
2022/07/11 09:57:36;;;;;;;;;;;20.30;99.90;;;;;;5013472;28;19963;-73
2022/07/11 10:00:06;;;;;;;;;;;20.40;99.90;;;;;;5009629;28;20431;-73
2022/07/11 10:02:32;;;;;;;;;;;20.60;99.90;;;;;;5013624;28;19921;-73
2022/07/11 10:04:58;;;;;;;;;;;20.80;99.90;;;;;;5012640;28;19971;-73
2022/07/11 10:07:24;;;;;;;;;;;20.80;99.90;;;;;;5031491;28;20406;-73
2022/07/11 10:09:50;;;;;;;;;;;20.90;99.90;;;;;;5011052;28;19917;-73
2022/07/11 10:12:15;;;;;;;;;;;20.80;99.90;;;;;;5015809;28;19960;-73
2022/07/11 10:14:41;;;;;;;;;;;20.80;99.90;;;;;;5009236;28;19992;-73
2022/07/11 10:17:22;;;;;;;;;;;20.70;99.90;;;;;;5032950;28;19925;-73
2022/07/11 10:19:52;;;;;;;;;;;20.60;99.90;;;;;;5012983;28;19917;-73
2022/07/11 10:22:22;;;;;;;;;;;20.70;99.90;;;;;;5011914;28;20418;-73
2022/07/11 10:25:07;;;;;;;;;;;20.70;99.90;;;;;;5012865;28;19971;-73
2022/07/11 10:27:32;;;;;;;;;;;20.80;99.90;;;;;;5018762;28;20300;-73
2022/07/11 10:29:58;;;;;;;;;;;22.00;99.90;;;;;;5014423;28;19947;-73
2022/07/11 10:32:24;;;;;;;;;;;20.90;99.90;;;;;;5010724;28;19917;-73
2022/07/11 10:35:13;;;;;;;;;;;21.10;99.90;;;;;;5019033;28;19917;-74
2022/07/11 10:37:48;;;;;;;;;;;21.00;99.90;;;;;;5003298;28;20416;-73
2022/07/11 10:40:14;;;;;;;;;;;21.00;99.90;;;;;;5022237;28;19960;-73
2022/07/11 10:42:41;;;;;;;;;;;21.20;99.90;;;;;;5015263;28;20441;-73
2022/07/11 10:45:07;;;;;;;;;;;21.00;99.90;;;;;;5022342;28;19940;-73
2022/07/11 10:47:41;;;;;;;;;;;20.90;99.90;;;;;;5023071;28;20015;-73
2022/07/11 10:50:14;;;;;;;;;;;20.80;99.90;;;;;;5021879;28;19986;-73
2022/07/11 10:52:40;;;;;;;;;;;20.90;99.90;;;;;;5013695;28;19952;-73
2022/07/11 10:55:08;;;;;;;;;;;20.80;99.90;;;;;;4999088;28;20625;-73
2022/07/11 10:57:52;;;;;;;;;;;20.70;99.90;;;;;;5016306;28;20400;-73
2022/07/11 11:00:21;;;;;;;;;;;20.70;99.90;;;;;;4994888;28;19917;-73
2022/07/11 11:03:00;;;;;;;;;;;20.70;99.90;;;;;;4997500;28;19927;-73
2022/07/11 11:05:42;;;;;;;;;;;20.80;99.90;;;;;;5018571;28;20051;-73
2022/07/11 11:08:26;;;;;;;;;;;20.90;99.90;;;;;;5017586;28;19921;-73
2022/07/11 11:10:52;;;;;;;;;;;21.10;99.90;;;;;;5015298;28;20016;-73
2022/07/11 11:13:20;;;;;;;;;;;22.40;99.90;;;;;;5020313;28;20594;-73
2022/07/11 11:15:50;;;;;;;;;;;21.30;99.90;;;;;;5022469;28;20015;-73
2022/07/11 11:21:02;;;;;;;;;;;21.50;99.90;;;;;;5013361;28;19924;-73
2022/07/11 11:23:31;;;;;;;;;;;21.60;99.90;;;;;;5017929;28;19988;-73
2022/07/11 11:26:05;;;;;;;;;;;21.70;99.90;;;;;;5023070;28;20007;-73
2022/07/11 11:28:31;;;;;;;;;;;21.90;99.90;;;;;;5012147;28;19978;-73
2022/07/11 11:30:59;;;;;;;;;;;22.00;99.90;;;;;;5012545;28;19921;-73
2022/07/11 11:33:25;;;;;;;;;;;22.10;99.90;;;;;;5035351;28;19932;-73
2022/07/11 11:36:04;;;;;;;;;;;22.20;99.90;;;;;;5032628;28;19927;-73
2022/07/11 11:38:32;;;;;;;;;;;22.10;99.90;;;;;;5014423;28;19917;-73
2022/07/11 11:40:58;;;;;;;;;;;22.20;99.90;;;;;;5008167;28;19921;-73
2022/07/11 11:43:24;;;;;;;;;;;22.20;99.90;;;;;;5015871;28;19960;-73
2022/07/11 11:45:50;;;;;;;;;;;22.30;99.90;;;;;;5004519;28;19967;-73
2022/07/11 11:48:46;;;;;;;;;;;22.30;99.90;;;;;;5009548;28;19921;-73
2022/07/11 11:51:13;;;;;;;;;;;22.40;99.90;;;;;;4996994;28;19932;-73
2022/07/11 11:53:43;;;;;;;;;;;22.60;99.90;;;;;;5024094;28;19961;-74
2022/07/11 11:56:15;;;;;;;;;;;22.60;99.90;;;;;;4995252;28;19963;-73
2022/07/11 11:58:44;;;;;;;;;;;22.60;99.90;;;;;;5009152;28;19944;-73
2022/07/11 12:01:13;;;;;;;;;;;22.60;99.90;;;;;;5023007;28;19920;-73
2022/07/11 12:03:49;;;;;;;;;;;22.60;99.90;;;;;;5009912;28;19996;-73
2022/07/11 12:06:14;;;;;;;;;;;22.70;99.90;;;;;;5014993;28;19917;-74
2022/07/11 12:08:40;;;;;;;;;;;22.80;99.90;;;;;;5021625;28;19971;-74
2022/07/11 12:11:06;;;;;;;;;;;22.90;99.90;;;;;;5004842;28;19940;-74
2022/07/11 12:13:31;;;;;;;;;;;22.90;99.90;;;;;;5022637;28;19925;-73
2022/07/11 12:18:41;;;;;;;;;;;23.30;99.90;;;;;;5007859;28;19917;-73
2022/07/11 12:21:11;;;;;;;;;;;23.10;99.90;;;;;;5012036;28;19928;-73
2022/07/11 12:23:36;;;;;;;;;;;23.10;99.90;;;;;;5029552;28;19917;-72
2022/07/11 12:26:02;;;;;;;;;;;22.90;99.90;;;;;;5017884;28;19917;-72
2022/07/11 12:28:27;;;;;;;;;;;23.00;99.90;;;;;;5009788;28;19967;-74
2022/07/11 12:30:56;;;;;;;;;;;22.90;99.90;;;;;;5030268;28;19971;-73
2022/07/11 12:33:23;;;;;;;;;;;22.90;99.90;;;;;;5030829;28;20008;-73
2022/07/11 12:35:53;;;;;;;;;;;22.90;99.90;;;;;;5038184;28;19924;-74
2022/07/11 12:38:20;;;;;;;;;;;22.70;99.90;;;;;;5014041;28;19917;-73
2022/07/11 12:40:59;;;;;;;;;;;22.60;99.90;;;;;;5034179;28;19960;-73
2022/07/11 12:46:28;;;;;;;;;;;23.10;99.90;;;;;;5028148;28;20325;-73
2022/07/11 12:48:55;;;;;;;;;;;23.40;99.90;;;;;;5016086;28;19921;-73
2022/07/11 12:51:27;;;;;;;;;;;23.60;99.90;;;;;;5036296;28;19917;-73
2022/07/11 12:53:59;;;;;;;;;;;23.50;99.90;;;;;;5028657;28;20353;-72
2022/07/11 12:56:25;;;;;;;;;;;23.40;99.90;;;;;;5019073;28;19924;-72
2022/07/11 12:58:50;;;;;;;;;;;23.40;99.90;;;;;;5013662;28;19917;-74
2022/07/11 13:01:16;;;;;;;;;;;23.20;99.90;;;;;;5018794;28;19917;-73
2022/07/11 13:03:42;;;;;;;;;;;23.00;99.90;;;;;;5009230;28;20023;-74
2022/07/11 13:06:07;;;;;;;;;;;22.80;99.90;;;;;;5006011;28;19917;-74
2022/07/11 13:08:46;;;;;;;;;;;22.70;99.90;;;;;;5014942;28;19933;-73
2022/07/11 13:11:19;;;;;;;;;;;22.60;99.90;;;;;;5009366;28;19924;-74
2022/07/11 13:13:48;;;;;;;;;;;22.50;99.90;;;;;;5012903;28;19928;-73
2022/07/11 13:16:15;;;;;;;;;;;22.50;99.90;;;;;;5014902;28;19917;-74
2022/07/11 13:18:40;;;;;;;;;;;22.60;99.90;;;;;;5023408;28;20404;-73
2022/07/11 13:21:09;;;;;;;;;;;22.60;99.90;;;;;;4999550;28;19980;-73
2022/07/11 13:23:35;;;;;;;;;;;22.70;99.90;;;;;;5014621;28;19921;-74
2022/07/11 13:26:01;;;;;;;;;;;22.80;99.90;;;;;;5014388;28;19920;-73
2022/07/11 13:28:27;;;;;;;;;;;23.00;99.90;;;;;;5020693;28;20342;-74
2022/07/11 13:30:52;;;;;;;;;;;23.10;99.90;;;;;;5021001;28;19920;-74
2022/07/11 13:33:18;;;;;;;;;;;23.20;99.90;;;;;;5009925;28;20014;-73
2022/07/11 13:35:45;;;;;;;;;;;23.30;99.90;;;;;;5008830;28;20296;-73
2022/07/11 13:38:11;;;;;;;;;;;23.40;99.90;;;;;;5016531;28;19917;-72
2022/07/11 13:40:37;;;;;;;;;;;23.60;99.90;;;;;;4999614;28;19928;-72
2022/07/11 13:43:02;;;;;;;;;;;23.60;99.90;;;;;;5011917;28;20026;-73
2022/07/11 13:45:28;;;;;;;;;;;23.70;99.90;;;;;;5011411;28;19917;-76
2022/07/11 13:47:54;;;;;;;;;;;23.70;99.90;;;;;;5009519;28;19936;-76
2022/07/11 13:50:21;;;;;;;;;;;23.80;99.90;;;;;;5010632;28;19925;-74
2022/07/11 13:52:48;;;;;;;;;;;23.70;99.90;;;;;;5024707;28;20011;-74
2022/07/11 13:55:14;;;;;;;;;;;23.70;99.90;;;;;;5019451;28;19916;-74
2022/07/11 13:57:40;;;;;;;;;;;24.70;99.90;;;;;;5011141;28;19964;-73
2022/07/11 14:00:06;;;;;;;;;;;23.50;99.90;;;;;;5011674;28;19963;-73
2022/07/11 14:02:31;;;;;;;;;;;23.50;99.90;;;;;;5003878;28;19927;-74
2022/07/11 14:04:58;;;;;;;;;;;23.60;99.90;;;;;;5027580;28;19917;-74
2022/07/11 14:07:23;;;;;;;;;;;23.70;99.90;;;;;;5014958;28;19917;-74
2022/07/11 14:09:53;;;;;;;;;;;23.90;99.90;;;;;;5013003;28;19929;-73
2022/07/11 14:12:19;;;;;;;;;;;23.90;99.90;;;;;;4988294;28;19917;-73
2022/07/11 14:14:45;;;;;;;;;;;23.90;99.90;;;;;;5011969;28;19928;-74
2022/07/11 14:17:10;;;;;;;;;;;23.70;99.90;;;;;;5014398;28;20003;-72
2022/07/11 14:19:38;;;;;;;;;;;23.80;99.90;;;;;;5018706;28;20007;-73
2022/07/11 14:22:07;;;;;;;;;;;23.70;99.90;;;;;;5009914;28;19929;-73
2022/07/11 14:24:33;;;;;;;;;;;23.70;99.90;;;;;;5017268;28;19927;-73
2022/07/11 14:26:59;;;;;;;;;;;23.80;99.90;;;;;;5009735;28;20023;-73
2022/07/11 14:29:25;;;;;;;;;;;23.80;99.90;;;;;;5005995;28;19930;-73
2022/07/11 14:31:51;;;;;;;;;;;24.00;99.90;;;;;;5005347;28;20013;-73
2022/07/11 14:34:17;;;;;;;;;;;23.90;99.90;;;;;;5014941;28;19921;-73